sensor_id;sensor_type;location;lat;lon;timestamp;P1;durP1;ratioP1;P2;durP2;ratioP2
22388;SDS011;11362;48.102;11.620;2023-05-27T00:01:46;4.50;;;3.77;;
22388;SDS011;11362;48.102;11.620;2023-05-27T00:04:11;4.87;;;4.00;;
22388;SDS011;11362;48.102;11.620;2023-05-27T00:06:36;5.00;;;4.03;;
22388;SDS011;11362;48.102;11.620;2023-05-27T00:09:02;4.07;;;3.67;;
22388;SDS011;11362;48.102;11.620;2023-05-27T00:11:27;4.13;;;3.83;;
22388;SDS011;11362;48.102;11.620;2023-05-27T00:13:52;5.33;;;4.27;;
22388;SDS011;11362;48.102;11.620;2023-05-27T00:16:18;4.33;;;3.93;;
22388;SDS011;11362;48.102;11.620;2023-05-27T00:18:43;4.43;;;4.13;;
22388;SDS011;11362;48.102;11.620;2023-05-27T00:21:08;4.37;;;4.07;;
22388;SDS011;11362;48.102;11.620;2023-05-27T00:23:34;4.10;;;3.70;;
22388;SDS011;11362;48.102;11.620;2023-05-27T00:25:59;3.80;;;3.50;;
22388;SDS011;11362;48.102;11.620;2023-05-27T00:28:24;5.00;;;3.77;;
22388;SDS011;11362;48.102;11.620;2023-05-27T00:30:49;5.67;;;4.50;;
22388;SDS011;11362;48.102;11.620;2023-05-27T00:33:15;3.93;;;3.63;;
22388;SDS011;11362;48.102;11.620;2023-05-27T00:35:40;4.13;;;3.83;;
22388;SDS011;11362;48.102;11.620;2023-05-27T00:38:05;4.37;;;3.97;;
22388;SDS011;11362;48.102;11.620;2023-05-27T00:40:30;4.70;;;4.30;;
22388;SDS011;11362;48.102;11.620;2023-05-27T00:42:59;4.13;;;3.80;;
22388;SDS011;11362;48.102;11.620;2023-05-27T00:45:24;4.70;;;3.90;;
22388;SDS011;11362;48.102;11.620;2023-05-27T00:47:50;6.17;;;4.20;;
22388;SDS011;11362;48.102;11.620;2023-05-27T00:50:16;4.23;;;3.83;;
22388;SDS011;11362;48.102;11.620;2023-05-27T00:52:43;4.40;;;3.93;;
22388;SDS011;11362;48.102;11.620;2023-05-27T00:55:08;5.47;;;3.90;;
22388;SDS011;11362;48.102;11.620;2023-05-27T00:57:34;4.20;;;3.23;;
22388;SDS011;11362;48.102;11.620;2023-05-27T00:59:59;3.90;;;3.60;;
22388;SDS011;11362;48.102;11.620;2023-05-27T01:02:25;4.10;;;3.80;;
22388;SDS011;11362;48.102;11.620;2023-05-27T01:04:50;4.37;;;3.97;;
22388;SDS011;11362;48.102;11.620;2023-05-27T01:07:22;4.40;;;3.97;;
22388;SDS011;11362;48.102;11.620;2023-05-27T01:12:54;3.97;;;3.67;;
22388;SDS011;11362;48.102;11.620;2023-05-27T01:15:24;4.93;;;4.30;;
22388;SDS011;11362;48.102;11.620;2023-05-27T01:17:50;3.87;;;3.53;;
22388;SDS011;11362;48.102;11.620;2023-05-27T01:20:20;4.10;;;3.80;;
22388;SDS011;11362;48.102;11.620;2023-05-27T01:22:45;4.00;;;3.60;;
22388;SDS011;11362;48.102;11.620;2023-05-27T01:25:12;3.93;;;3.63;;
22388;SDS011;11362;48.102;11.620;2023-05-27T01:27:37;3.90;;;3.53;;
22388;SDS011;11362;48.102;11.620;2023-05-27T01:30:02;3.67;;;3.47;;
22388;SDS011;11362;48.102;11.620;2023-05-27T01:33:02;4.17;;;3.73;;
22388;SDS011;11362;48.102;11.620;2023-05-27T01:35:27;4.73;;;3.73;;
22388;SDS011;11362;48.102;11.620;2023-05-27T01:37:55;4.30;;;4.00;;
22388;SDS011;11362;48.102;11.620;2023-05-27T01:40:24;3.77;;;3.47;;
22388;SDS011;11362;48.102;11.620;2023-05-27T01:42:50;4.40;;;4.03;;
22388;SDS011;11362;48.102;11.620;2023-05-27T01:45:16;4.13;;;3.80;;
22388;SDS011;11362;48.102;11.620;2023-05-27T01:47:44;3.70;;;3.40;;
22388;SDS011;11362;48.102;11.620;2023-05-27T01:50:09;3.77;;;3.47;;
22388;SDS011;11362;48.102;11.620;2023-05-27T01:52:35;4.23;;;3.73;;
22388;SDS011;11362;48.102;11.620;2023-05-27T01:55:00;3.90;;;3.60;;
22388;SDS011;11362;48.102;11.620;2023-05-27T01:57:25;4.00;;;3.70;;
22388;SDS011;11362;48.102;11.620;2023-05-27T01:59:51;4.00;;;3.70;;
22388;SDS011;11362;48.102;11.620;2023-05-27T02:02:16;3.97;;;3.67;;
22388;SDS011;11362;48.102;11.620;2023-05-27T02:04:42;4.17;;;3.80;;
22388;SDS011;11362;48.102;11.620;2023-05-27T02:07:07;3.90;;;3.60;;
22388;SDS011;11362;48.102;11.620;2023-05-27T02:09:32;3.67;;;3.37;;
22388;SDS011;11362;48.102;11.620;2023-05-27T02:11:57;4.10;;;3.73;;
22388;SDS011;11362;48.102;11.620;2023-05-27T02:14:23;3.60;;;3.40;;
22388;SDS011;11362;48.102;11.620;2023-05-27T02:16:48;3.30;;;3.10;;
22388;SDS011;11362;48.102;11.620;2023-05-27T02:19:13;4.97;;;4.40;;
22388;SDS011;11362;48.102;11.620;2023-05-27T02:21:39;3.93;;;3.63;;
22388;SDS011;11362;48.102;11.620;2023-05-27T02:24:04;4.37;;;3.97;;
22388;SDS011;11362;48.102;11.620;2023-05-27T02:26:29;4.07;;;3.67;;
22388;SDS011;11362;48.102;11.620;2023-05-27T02:28:55;4.00;;;3.63;;
22388;SDS011;11362;48.102;11.620;2023-05-27T02:31:20;3.53;;;3.33;;
22388;SDS011;11362;48.102;11.620;2023-05-27T02:33:46;3.47;;;3.20;;
22388;SDS011;11362;48.102;11.620;2023-05-27T02:36:11;4.13;;;3.83;;
22388;SDS011;11362;48.102;11.620;2023-05-27T02:38:37;4.07;;;3.77;;
22388;SDS011;11362;48.102;11.620;2023-05-27T02:41:02;3.83;;;3.57;;
22388;SDS011;11362;48.102;11.620;2023-05-27T02:43:28;4.10;;;3.80;;
22388;SDS011;11362;48.102;11.620;2023-05-27T02:45:53;3.93;;;3.63;;
22388;SDS011;11362;48.102;11.620;2023-05-27T02:48:18;3.70;;;3.50;;
22388;SDS011;11362;48.102;11.620;2023-05-27T02:50:44;4.70;;;3.70;;
22388;SDS011;11362;48.102;11.620;2023-05-27T02:53:09;3.80;;;3.50;;
22388;SDS011;11362;48.102;11.620;2023-05-27T02:55:34;4.10;;;3.70;;
22388;SDS011;11362;48.102;11.620;2023-05-27T02:57:59;4.37;;;3.77;;
22388;SDS011;11362;48.102;11.620;2023-05-27T03:00:25;3.97;;;3.63;;
22388;SDS011;11362;48.102;11.620;2023-05-27T03:02:50;4.43;;;4.13;;
22388;SDS011;11362;48.102;11.620;2023-05-27T03:05:15;3.60;;;3.33;;
22388;SDS011;11362;48.102;11.620;2023-05-27T03:07:40;4.47;;;3.33;;
22388;SDS011;11362;48.102;11.620;2023-05-27T03:10:06;3.97;;;3.67;;
22388;SDS011;11362;48.102;11.620;2023-05-27T03:12:32;3.90;;;3.63;;
22388;SDS011;11362;48.102;11.620;2023-05-27T03:14:57;3.60;;;3.30;;
22388;SDS011;11362;48.102;11.620;2023-05-27T03:17:22;4.10;;;3.80;;
22388;SDS011;11362;48.102;11.620;2023-05-27T03:19:48;3.87;;;3.63;;
22388;SDS011;11362;48.102;11.620;2023-05-27T03:22:13;3.80;;;3.50;;
22388;SDS011;11362;48.102;11.620;2023-05-27T03:24:38;4.10;;;3.70;;
22388;SDS011;11362;48.102;11.620;2023-05-27T03:27:04;3.90;;;3.60;;
22388;SDS011;11362;48.102;11.620;2023-05-27T03:29:29;3.97;;;3.67;;
22388;SDS011;11362;48.102;11.620;2023-05-27T03:31:55;3.90;;;3.57;;
22388;SDS011;11362;48.102;11.620;2023-05-27T03:34:20;4.00;;;3.57;;
22388;SDS011;11362;48.102;11.620;2023-05-27T03:36:45;3.47;;;3.27;;
22388;SDS011;11362;48.102;11.620;2023-05-27T03:39:11;3.97;;;3.60;;
22388;SDS011;11362;48.102;11.620;2023-05-27T03:41:37;3.67;;;3.43;;
22388;SDS011;11362;48.102;11.620;2023-05-27T03:44:02;3.60;;;3.30;;
22388;SDS011;11362;48.102;11.620;2023-05-27T03:46:27;3.60;;;3.40;;
22388;SDS011;11362;48.102;11.620;2023-05-27T03:48:53;3.60;;;3.40;;
22388;SDS011;11362;48.102;11.620;2023-05-27T03:51:19;3.40;;;2.87;;
22388;SDS011;11362;48.102;11.620;2023-05-27T03:53:45;3.50;;;3.30;;
22388;SDS011;11362;48.102;11.620;2023-05-27T03:56:10;3.97;;;3.67;;
22388;SDS011;11362;48.102;11.620;2023-05-27T03:58:35;3.33;;;3.13;;
22388;SDS011;11362;48.102;11.620;2023-05-27T04:01:01;4.13;;;3.80;;
22388;SDS011;11362;48.102;11.620;2023-05-27T04:03:26;3.73;;;3.43;;
22388;SDS011;11362;48.102;11.620;2023-05-27T04:05:51;3.40;;;3.20;;
22388;SDS011;11362;48.102;11.620;2023-05-27T04:08:17;3.50;;;3.30;;
22388;SDS011;11362;48.102;11.620;2023-05-27T04:10:42;3.43;;;3.20;;
22388;SDS011;11362;48.102;11.620;2023-05-27T04:13:07;3.50;;;3.30;;
22388;SDS011;11362;48.102;11.620;2023-05-27T04:15:32;3.73;;;3.43;;
22388;SDS011;11362;48.102;11.620;2023-05-27T04:17:59;3.60;;;3.40;;
22388;SDS011;11362;48.102;11.620;2023-05-27T04:20:24;3.30;;;3.10;;
22388;SDS011;11362;48.102;11.620;2023-05-27T04:22:49;4.10;;;3.80;;
22388;SDS011;11362;48.102;11.620;2023-05-27T04:25:14;4.03;;;3.73;;
22388;SDS011;11362;48.102;11.620;2023-05-27T04:27:40;3.80;;;3.60;;
22388;SDS011;11362;48.102;11.620;2023-05-27T04:30:05;3.80;;;3.50;;
22388;SDS011;11362;48.102;11.620;2023-05-27T04:32:32;3.40;;;3.20;;
22388;SDS011;11362;48.102;11.620;2023-05-27T04:34:57;3.93;;;3.63;;
22388;SDS011;11362;48.102;11.620;2023-05-27T04:37:23;3.80;;;3.50;;
22388;SDS011;11362;48.102;11.620;2023-05-27T04:39:48;3.57;;;3.30;;
22388;SDS011;11362;48.102;11.620;2023-05-27T04:42:13;3.60;;;3.40;;
22388;SDS011;11362;48.102;11.620;2023-05-27T04:44:39;3.43;;;3.13;;
22388;SDS011;11362;48.102;11.620;2023-05-27T04:47:04;3.43;;;3.23;;
22388;SDS011;11362;48.102;11.620;2023-05-27T04:49:30;3.37;;;3.17;;
22388;SDS011;11362;48.102;11.620;2023-05-27T04:51:56;3.30;;;3.10;;
22388;SDS011;11362;48.102;11.620;2023-05-27T04:54:21;3.33;;;3.13;;
22388;SDS011;11362;48.102;11.620;2023-05-27T04:56:47;3.80;;;3.43;;
22388;SDS011;11362;48.102;11.620;2023-05-27T04:59:12;3.00;;;2.90;;
22388;SDS011;11362;48.102;11.620;2023-05-27T05:01:38;3.20;;;3.00;;
22388;SDS011;11362;48.102;11.620;2023-05-27T05:04:03;3.53;;;3.23;;
22388;SDS011;11362;48.102;11.620;2023-05-27T05:06:28;3.80;;;3.50;;
22388;SDS011;11362;48.102;11.620;2023-05-27T05:08:53;3.20;;;3.00;;
22388;SDS011;11362;48.102;11.620;2023-05-27T05:11:19;3.77;;;3.47;;
22388;SDS011;11362;48.102;11.620;2023-05-27T05:13:44;3.63;;;3.43;;
22388;SDS011;11362;48.102;11.620;2023-05-27T05:16:10;3.70;;;3.43;;
22388;SDS011;11362;48.102;11.620;2023-05-27T05:18:35;3.87;;;3.67;;
22388;SDS011;11362;48.102;11.620;2023-05-27T05:21:00;3.80;;;3.50;;
22388;SDS011;11362;48.102;11.620;2023-05-27T05:23:25;3.47;;;3.27;;
22388;SDS011;11362;48.102;11.620;2023-05-27T05:25:51;3.27;;;3.07;;
22388;SDS011;11362;48.102;11.620;2023-05-27T05:28:16;3.60;;;3.30;;
22388;SDS011;11362;48.102;11.620;2023-05-27T05:30:41;2.97;;;2.77;;
22388;SDS011;11362;48.102;11.620;2023-05-27T05:33:06;3.87;;;3.47;;
22388;SDS011;11362;48.102;11.620;2023-05-27T05:35:32;3.33;;;3.13;;
22388;SDS011;11362;48.102;11.620;2023-05-27T05:37:57;4.40;;;3.30;;
22388;SDS011;11362;48.102;11.620;2023-05-27T05:40:22;4.63;;;3.67;;
22388;SDS011;11362;48.102;11.620;2023-05-27T05:42:49;7.60;;;3.73;;
22388;SDS011;11362;48.102;11.620;2023-05-27T05:45:14;4.27;;;3.53;;
22388;SDS011;11362;48.102;11.620;2023-05-27T05:47:39;6.53;;;3.47;;
22388;SDS011;11362;48.102;11.620;2023-05-27T05:50:05;5.13;;;3.70;;
22388;SDS011;11362;48.102;11.620;2023-05-27T05:52:30;5.70;;;4.10;;
22388;SDS011;11362;48.102;11.620;2023-05-27T05:54:56;13.20;;;3.87;;
22388;SDS011;11362;48.102;11.620;2023-05-27T05:57:21;7.43;;;4.07;;
22388;SDS011;11362;48.102;11.620;2023-05-27T05:59:46;4.20;;;3.17;;
22388;SDS011;11362;48.102;11.620;2023-05-27T06:02:11;7.63;;;4.13;;
22388;SDS011;11362;48.102;11.620;2023-05-27T06:04:37;13.50;;;3.47;;
22388;SDS011;11362;48.102;11.620;2023-05-27T06:07:02;8.90;;;4.47;;
22388;SDS011;11362;48.102;11.620;2023-05-27T06:09:27;11.67;;;3.50;;
22388;SDS011;11362;48.102;11.620;2023-05-27T06:11:53;7.53;;;3.80;;
22388;SDS011;11362;48.102;11.620;2023-05-27T06:14:18;6.30;;;3.90;;
22388;SDS011;11362;48.102;11.620;2023-05-27T06:16:43;9.13;;;4.03;;
22388;SDS011;11362;48.102;11.620;2023-05-27T06:19:09;5.93;;;4.10;;
22388;SDS011;11362;48.102;11.620;2023-05-27T06:21:34;7.60;;;5.30;;
22388;SDS011;11362;48.102;11.620;2023-05-27T06:23:59;9.10;;;5.07;;
22388;SDS011;11362;48.102;11.620;2023-05-27T06:26:25;8.80;;;6.17;;
22388;SDS011;11362;48.102;11.620;2023-05-27T06:28:50;5.27;;;4.60;;
22388;SDS011;11362;48.102;11.620;2023-05-27T06:31:16;5.27;;;4.70;;
22388;SDS011;11362;48.102;11.620;2023-05-27T06:33:41;8.70;;;4.63;;
22388;SDS011;11362;48.102;11.620;2023-05-27T06:36:07;8.37;;;4.73;;
22388;SDS011;11362;48.102;11.620;2023-05-27T06:38:32;9.03;;;4.40;;
22388;SDS011;11362;48.102;11.620;2023-05-27T06:40:57;10.10;;;4.90;;
22388;SDS011;11362;48.102;11.620;2023-05-27T06:43:23;6.67;;;5.23;;
22388;SDS011;11362;48.102;11.620;2023-05-27T06:45:48;6.13;;;4.20;;
22388;SDS011;11362;48.102;11.620;2023-05-27T06:48:13;7.53;;;4.33;;
22388;SDS011;11362;48.102;11.620;2023-05-27T06:50:38;8.03;;;4.10;;
22388;SDS011;11362;48.102;11.620;2023-05-27T06:53:04;13.50;;;3.87;;
22388;SDS011;11362;48.102;11.620;2023-05-27T06:55:29;7.23;;;4.40;;
22388;SDS011;11362;48.102;11.620;2023-05-27T06:57:55;9.13;;;4.17;;
22388;SDS011;11362;48.102;11.620;2023-05-27T07:00:20;11.70;;;4.97;;
22388;SDS011;11362;48.102;11.620;2023-05-27T07:02:45;16.13;;;5.20;;
22388;SDS011;11362;48.102;11.620;2023-05-27T07:05:11;12.87;;;4.80;;
22388;SDS011;11362;48.102;11.620;2023-05-27T07:07:36;21.73;;;5.03;;
22388;SDS011;11362;48.102;11.620;2023-05-27T07:10:01;9.40;;;5.30;;
22388;SDS011;11362;48.102;11.620;2023-05-27T07:12:27;19.27;;;4.73;;
22388;SDS011;11362;48.102;11.620;2023-05-27T07:14:52;15.37;;;5.40;;
22388;SDS011;11362;48.102;11.620;2023-05-27T07:17:17;23.67;;;5.47;;
22388;SDS011;11362;48.102;11.620;2023-05-27T07:19:42;19.60;;;5.60;;
22388;SDS011;11362;48.102;11.620;2023-05-27T07:22:08;28.03;;;6.23;;
22388;SDS011;11362;48.102;11.620;2023-05-27T07:24:33;26.20;;;5.70;;
22388;SDS011;11362;48.102;11.620;2023-05-27T07:26:58;21.77;;;6.83;;
22388;SDS011;11362;48.102;11.620;2023-05-27T07:29:24;25.67;;;6.23;;
22388;SDS011;11362;48.102;11.620;2023-05-27T07:31:49;14.37;;;5.47;;
22388;SDS011;11362;48.102;11.620;2023-05-27T07:34:14;16.80;;;5.23;;
22388;SDS011;11362;48.102;11.620;2023-05-27T07:36:39;21.90;;;5.17;;
22388;SDS011;11362;48.102;11.620;2023-05-27T07:39:05;15.33;;;5.17;;
22388;SDS011;11362;48.102;11.620;2023-05-27T07:41:30;18.43;;;5.20;;
22388;SDS011;11362;48.102;11.620;2023-05-27T07:43:56;16.87;;;5.40;;
22388;SDS011;11362;48.102;11.620;2023-05-27T07:46:21;14.90;;;4.93;;
22388;SDS011;11362;48.102;11.620;2023-05-27T07:48:47;16.47;;;5.53;;
22388;SDS011;11362;48.102;11.620;2023-05-27T07:51:12;17.53;;;5.33;;
22388;SDS011;11362;48.102;11.620;2023-05-27T07:53:38;14.67;;;5.30;;
22388;SDS011;11362;48.102;11.620;2023-05-27T07:56:03;18.07;;;5.50;;
22388;SDS011;11362;48.102;11.620;2023-05-27T07:58:28;18.07;;;5.20;;
22388;SDS011;11362;48.102;11.620;2023-05-27T08:00:54;13.07;;;4.77;;
22388;SDS011;11362;48.102;11.620;2023-05-27T08:03:19;16.10;;;4.33;;
22388;SDS011;11362;48.102;11.620;2023-05-27T08:05:44;19.50;;;6.27;;
22388;SDS011;11362;48.102;11.620;2023-05-27T08:08:09;16.77;;;4.70;;
22388;SDS011;11362;48.102;11.620;2023-05-27T08:10:35;17.50;;;4.47;;
22388;SDS011;11362;48.102;11.620;2023-05-27T08:13:00;16.07;;;5.03;;
22388;SDS011;11362;48.102;11.620;2023-05-27T08:15:25;13.43;;;5.13;;
22388;SDS011;11362;48.102;11.620;2023-05-27T08:17:51;11.77;;;4.40;;
22388;SDS011;11362;48.102;11.620;2023-05-27T08:20:16;20.37;;;4.80;;
22388;SDS011;11362;48.102;11.620;2023-05-27T08:22:41;20.33;;;4.60;;
22388;SDS011;11362;48.102;11.620;2023-05-27T08:25:07;17.80;;;5.20;;
22388;SDS011;11362;48.102;11.620;2023-05-27T08:27:51;25.47;;;6.07;;
22388;SDS011;11362;48.102;11.620;2023-05-27T08:30:18;24.67;;;5.50;;
22388;SDS011;11362;48.102;11.620;2023-05-27T08:32:43;29.63;;;6.03;;
22388;SDS011;11362;48.102;11.620;2023-05-27T08:35:09;26.67;;;5.63;;
22388;SDS011;11362;48.102;11.620;2023-05-27T08:37:35;28.50;;;5.47;;
22388;SDS011;11362;48.102;11.620;2023-05-27T08:40:00;22.83;;;5.07;;
22388;SDS011;11362;48.102;11.620;2023-05-27T08:42:26;24.60;;;4.80;;
22388;SDS011;11362;48.102;11.620;2023-05-27T08:44:51;17.67;;;4.23;;
22388;SDS011;11362;48.102;11.620;2023-05-27T08:47:16;21.93;;;4.60;;
22388;SDS011;11362;48.102;11.620;2023-05-27T08:49:42;10.93;;;4.10;;
22388;SDS011;11362;48.102;11.620;2023-05-27T08:52:09;11.13;;;4.73;;
22388;SDS011;11362;48.102;11.620;2023-05-27T08:54:34;15.80;;;4.33;;
22388;SDS011;11362;48.102;11.620;2023-05-27T08:57:01;11.67;;;4.37;;
22388;SDS011;11362;48.102;11.620;2023-05-27T08:59:31;14.73;;;4.33;;
22388;SDS011;11362;48.102;11.620;2023-05-27T09:01:56;16.07;;;5.37;;
22388;SDS011;11362;48.102;11.620;2023-05-27T09:04:22;12.47;;;4.43;;
22388;SDS011;11362;48.102;11.620;2023-05-27T09:06:48;14.57;;;4.60;;
22388;SDS011;11362;48.102;11.620;2023-05-27T09:09:13;13.73;;;4.60;;
22388;SDS011;11362;48.102;11.620;2023-05-27T09:11:41;15.87;;;4.67;;
22388;SDS011;11362;48.102;11.620;2023-05-27T09:14:06;14.83;;;3.97;;
22388;SDS011;11362;48.102;11.620;2023-05-27T09:16:32;15.83;;;4.57;;
22388;SDS011;11362;48.102;11.620;2023-05-27T09:18:57;18.97;;;4.97;;
22388;SDS011;11362;48.102;11.620;2023-05-27T09:21:23;12.03;;;4.63;;
22388;SDS011;11362;48.102;11.620;2023-05-27T09:23:50;17.23;;;4.63;;
22388;SDS011;11362;48.102;11.620;2023-05-27T09:26:15;14.60;;;3.97;;
22388;SDS011;11362;48.102;11.620;2023-05-27T09:28:40;13.23;;;4.87;;
22388;SDS011;11362;48.102;11.620;2023-05-27T09:31:07;11.40;;;4.50;;
22388;SDS011;11362;48.102;11.620;2023-05-27T09:33:35;10.63;;;4.40;;
22388;SDS011;11362;48.102;11.620;2023-05-27T09:36:02;7.33;;;3.87;;
22388;SDS011;11362;48.102;11.620;2023-05-27T09:38:29;4.73;;;2.80;;
22388;SDS011;11362;48.102;11.620;2023-05-27T09:40:55;9.23;;;3.53;;
22388;SDS011;11362;48.102;11.620;2023-05-27T09:43:21;9.80;;;4.13;;
22388;SDS011;11362;48.102;11.620;2023-05-27T09:45:49;10.80;;;4.30;;
22388;SDS011;11362;48.102;11.620;2023-05-27T09:48:15;8.53;;;3.87;;
22388;SDS011;11362;48.102;11.620;2023-05-27T09:50:43;8.43;;;3.70;;
22388;SDS011;11362;48.102;11.620;2023-05-27T09:53:09;9.53;;;3.50;;
22388;SDS011;11362;48.102;11.620;2023-05-27T09:55:35;7.83;;;3.57;;
22388;SDS011;11362;48.102;11.620;2023-05-27T09:58:00;10.83;;;4.43;;
22388;SDS011;11362;48.102;11.620;2023-05-27T10:00:26;9.17;;;3.73;;
22388;SDS011;11362;48.102;11.620;2023-05-27T10:02:53;13.80;;;3.67;;
22388;SDS011;11362;48.102;11.620;2023-05-27T10:05:18;6.37;;;3.50;;
22388;SDS011;11362;48.102;11.620;2023-05-27T10:07:44;7.00;;;3.73;;
22388;SDS011;11362;48.102;11.620;2023-05-27T10:10:11;11.20;;;3.90;;
22388;SDS011;11362;48.102;11.620;2023-05-27T10:12:39;5.93;;;3.67;;
22388;SDS011;11362;48.102;11.620;2023-05-27T10:15:06;4.83;;;3.10;;
22388;SDS011;11362;48.102;11.620;2023-05-27T10:17:47;10.57;;;3.80;;
22388;SDS011;11362;48.102;11.620;2023-05-27T10:20:50;6.27;;;2.97;;
22388;SDS011;11362;48.102;11.620;2023-05-27T10:23:15;9.03;;;3.57;;
22388;SDS011;11362;48.102;11.620;2023-05-27T10:25:45;6.33;;;3.63;;
22388;SDS011;11362;48.102;11.620;2023-05-27T10:28:12;5.60;;;3.60;;
22388;SDS011;11362;48.102;11.620;2023-05-27T10:31:07;8.83;;;3.10;;
22388;SDS011;11362;48.102;11.620;2023-05-27T10:33:34;8.70;;;3.73;;
22388;SDS011;11362;48.102;11.620;2023-05-27T10:36:16;8.63;;;3.60;;
22388;SDS011;11362;48.102;11.620;2023-05-27T10:38:42;6.03;;;3.37;;
22388;SDS011;11362;48.102;11.620;2023-05-27T10:41:19;4.67;;;3.07;;
22388;SDS011;11362;48.102;11.620;2023-05-27T10:43:44;5.27;;;3.10;;
22388;SDS011;11362;48.102;11.620;2023-05-27T10:46:22;8.03;;;3.13;;
22388;SDS011;11362;48.102;11.620;2023-05-27T10:48:48;5.93;;;3.40;;
22388;SDS011;11362;48.102;11.620;2023-05-27T10:51:13;4.33;;;2.90;;
22388;SDS011;11362;48.102;11.620;2023-05-27T10:53:38;6.83;;;2.80;;
22388;SDS011;11362;48.102;11.620;2023-05-27T10:56:04;9.17;;;3.40;;
22388;SDS011;11362;48.102;11.620;2023-05-27T10:58:30;5.73;;;3.73;;
22388;SDS011;11362;48.102;11.620;2023-05-27T11:00:59;5.83;;;3.40;;
22388;SDS011;11362;48.102;11.620;2023-05-27T11:03:31;5.30;;;3.20;;
22388;SDS011;11362;48.102;11.620;2023-05-27T11:08:22;5.17;;;2.80;;
22388;SDS011;11362;48.102;11.620;2023-05-27T11:10:47;3.50;;;3.00;;
22388;SDS011;11362;48.102;11.620;2023-05-27T11:13:12;4.13;;;3.30;;
22388;SDS011;11362;48.102;11.620;2023-05-27T11:15:39;3.77;;;3.37;;
22388;SDS011;11362;48.102;11.620;2023-05-27T11:18:05;6.37;;;3.37;;
22388;SDS011;11362;48.102;11.620;2023-05-27T11:20:34;4.57;;;2.97;;
22388;SDS011;11362;48.102;11.620;2023-05-27T11:23:00;5.50;;;3.37;;
22388;SDS011;11362;48.102;11.620;2023-05-27T11:25:26;4.87;;;3.50;;
22388;SDS011;11362;48.102;11.620;2023-05-27T11:27:51;3.90;;;3.30;;
22388;SDS011;11362;48.102;11.620;2023-05-27T11:30:16;3.00;;;2.50;;
22388;SDS011;11362;48.102;11.620;2023-05-27T11:32:42;4.93;;;3.30;;
22388;SDS011;11362;48.102;11.620;2023-05-27T11:35:17;3.57;;;2.80;;
22388;SDS011;11362;48.102;11.620;2023-05-27T11:37:46;3.47;;;2.90;;
22388;SDS011;11362;48.102;11.620;2023-05-27T11:40:14;3.57;;;2.73;;
22388;SDS011;11362;48.102;11.620;2023-05-27T11:42:42;2.67;;;2.53;;
22388;SDS011;11362;48.102;11.620;2023-05-27T11:45:14;3.77;;;3.13;;
22388;SDS011;11362;48.102;11.620;2023-05-27T11:47:44;4.13;;;3.40;;
22388;SDS011;11362;48.102;11.620;2023-05-27T11:50:09;3.10;;;2.80;;
22388;SDS011;11362;48.102;11.620;2023-05-27T11:52:35;5.20;;;3.20;;
22388;SDS011;11362;48.102;11.620;2023-05-27T11:55:00;4.50;;;3.13;;
22388;SDS011;11362;48.102;11.620;2023-05-27T11:57:25;3.47;;;2.80;;
22388;SDS011;11362;48.102;11.620;2023-05-27T11:59:51;3.80;;;2.90;;
22388;SDS011;11362;48.102;11.620;2023-05-27T12:02:16;4.43;;;3.00;;
22388;SDS011;11362;48.102;11.620;2023-05-27T12:04:41;3.97;;;3.23;;
22388;SDS011;11362;48.102;11.620;2023-05-27T12:07:06;3.50;;;3.07;;
22388;SDS011;11362;48.102;11.620;2023-05-27T12:09:32;3.47;;;2.87;;
22388;SDS011;11362;48.102;11.620;2023-05-27T12:11:57;4.63;;;3.00;;
22388;SDS011;11362;48.102;11.620;2023-05-27T12:14:22;3.30;;;3.10;;
22388;SDS011;11362;48.102;11.620;2023-05-27T12:16:48;4.37;;;2.67;;
22388;SDS011;11362;48.102;11.620;2023-05-27T12:19:13;4.37;;;2.80;;
22388;SDS011;11362;48.102;11.620;2023-05-27T12:21:39;3.37;;;2.60;;
22388;SDS011;11362;48.102;11.620;2023-05-27T12:24:05;3.13;;;2.83;;
22388;SDS011;11362;48.102;11.620;2023-05-27T12:26:30;3.30;;;3.00;;
22388;SDS011;11362;48.102;11.620;2023-05-27T12:28:56;3.93;;;3.03;;
22388;SDS011;11362;48.102;11.620;2023-05-27T12:31:21;5.70;;;3.17;;
22388;SDS011;11362;48.102;11.620;2023-05-27T12:33:47;4.10;;;2.80;;
22388;SDS011;11362;48.102;11.620;2023-05-27T12:36:12;3.40;;;3.10;;
22388;SDS011;11362;48.102;11.620;2023-05-27T12:38:37;2.97;;;2.67;;
22388;SDS011;11362;48.102;11.620;2023-05-27T12:41:02;3.30;;;2.57;;
22388;SDS011;11362;48.102;11.620;2023-05-27T12:43:28;2.87;;;2.57;;
22388;SDS011;11362;48.102;11.620;2023-05-27T12:45:53;3.17;;;2.87;;
22388;SDS011;11362;48.102;11.620;2023-05-27T12:48:18;4.27;;;2.93;;
22388;SDS011;11362;48.102;11.620;2023-05-27T12:50:44;3.23;;;2.93;;
22388;SDS011;11362;48.102;11.620;2023-05-27T12:53:09;3.13;;;2.90;;
22388;SDS011;11362;48.102;11.620;2023-05-27T12:55:34;2.83;;;2.63;;
22388;SDS011;11362;48.102;11.620;2023-05-27T12:58:00;3.80;;;3.10;;
22388;SDS011;11362;48.102;11.620;2023-05-27T13:00:26;3.03;;;2.73;;
22388;SDS011;11362;48.102;11.620;2023-05-27T13:02:52;2.73;;;2.53;;
22388;SDS011;11362;48.102;11.620;2023-05-27T13:05:17;3.37;;;3.07;;
22388;SDS011;11362;48.102;11.620;2023-05-27T13:07:57;3.37;;;2.97;;
22388;SDS011;11362;48.102;11.620;2023-05-27T13:10:26;2.97;;;2.70;;
22388;SDS011;11362;48.102;11.620;2023-05-27T13:12:52;3.10;;;2.80;;
22388;SDS011;11362;48.102;11.620;2023-05-27T13:15:18;2.57;;;2.37;;
22388;SDS011;11362;48.102;11.620;2023-05-27T13:17:44;3.23;;;2.83;;
22388;SDS011;11362;48.102;11.620;2023-05-27T13:20:10;3.33;;;3.07;;
22388;SDS011;11362;48.102;11.620;2023-05-27T13:22:35;2.93;;;2.73;;
22388;SDS011;11362;48.102;11.620;2023-05-27T13:25:01;3.00;;;2.70;;
22388;SDS011;11362;48.102;11.620;2023-05-27T13:27:26;2.90;;;2.70;;
22388;SDS011;11362;48.102;11.620;2023-05-27T13:29:51;2.80;;;2.60;;
22388;SDS011;11362;48.102;11.620;2023-05-27T13:32:16;2.80;;;2.60;;
22388;SDS011;11362;48.102;11.620;2023-05-27T13:34:42;2.70;;;2.53;;
22388;SDS011;11362;48.102;11.620;2023-05-27T13:37:07;3.10;;;2.80;;
22388;SDS011;11362;48.102;11.620;2023-05-27T13:39:32;2.97;;;2.67;;
22388;SDS011;11362;48.102;11.620;2023-05-27T13:41:58;5.73;;;3.20;;
22388;SDS011;11362;48.102;11.620;2023-05-27T13:44:23;4.47;;;2.63;;
22388;SDS011;11362;48.102;11.620;2023-05-27T13:46:48;3.07;;;2.87;;
22388;SDS011;11362;48.102;11.620;2023-05-27T13:49:14;4.07;;;2.83;;
22388;SDS011;11362;48.102;11.620;2023-05-27T13:51:43;2.70;;;2.50;;
22388;SDS011;11362;48.102;11.620;2023-05-27T13:54:09;3.27;;;2.90;;
22388;SDS011;11362;48.102;11.620;2023-05-27T13:56:34;3.03;;;2.73;;
22388;SDS011;11362;48.102;11.620;2023-05-27T13:59:00;4.03;;;3.00;;
22388;SDS011;11362;48.102;11.620;2023-05-27T14:01:25;2.97;;;2.67;;
22388;SDS011;11362;48.102;11.620;2023-05-27T14:03:50;3.17;;;2.63;;
22388;SDS011;11362;48.102;11.620;2023-05-27T14:06:15;2.93;;;2.70;;
22388;SDS011;11362;48.102;11.620;2023-05-27T14:08:41;3.10;;;2.90;;
22388;SDS011;11362;48.102;11.620;2023-05-27T14:11:06;3.00;;;2.80;;
22388;SDS011;11362;48.102;11.620;2023-05-27T14:13:31;2.67;;;2.40;;
22388;SDS011;11362;48.102;11.620;2023-05-27T14:15:56;3.00;;;2.37;;
22388;SDS011;11362;48.102;11.620;2023-05-27T14:18:22;2.77;;;2.60;;
22388;SDS011;11362;48.102;11.620;2023-05-27T14:20:47;2.53;;;2.43;;
22388;SDS011;11362;48.102;11.620;2023-05-27T14:23:13;2.97;;;2.77;;
22388;SDS011;11362;48.102;11.620;2023-05-27T14:25:39;4.13;;;2.80;;
22388;SDS011;11362;48.102;11.620;2023-05-27T14:28:04;2.27;;;2.00;;
22388;SDS011;11362;48.102;11.620;2023-05-27T14:30:29;3.00;;;2.80;;